createdAt,value
2023-02-15T00:02:10.940Z,27.00
2023-02-15T00:06:12.292Z,27.87
2023-02-15T00:10:13.699Z,27.40
2023-02-15T00:14:20.909Z,25.70
2023-02-15T00:18:22.175Z,26.57
2023-02-15T00:22:23.501Z,25.63
2023-02-15T00:26:25.415Z,24.77
2023-02-15T00:30:26.848Z,26.30
2023-02-15T00:34:28.673Z,27.27
2023-02-15T00:38:31.392Z,26.47
2023-02-15T00:42:32.676Z,25.83
2023-02-15T00:46:34.525Z,26.90
2023-02-15T00:50:35.792Z,27.10
2023-02-15T00:54:37.102Z,26.30
2023-02-15T00:58:38.564Z,27.07
2023-02-15T01:02:39.891Z,28.37
2023-02-15T01:06:41.196Z,26.03
2023-02-15T01:10:44.883Z,26.90
2023-02-15T01:14:46.197Z,27.33
2023-02-15T01:18:48.100Z,27.07
2023-02-15T01:22:50.692Z,27.27
2023-02-15T01:26:52.040Z,26.90
2023-02-15T01:30:53.509Z,27.87
2023-02-15T01:34:54.952Z,26.63
2023-02-15T01:38:56.402Z,26.77
2023-02-15T01:42:57.782Z,27.80
2023-02-15T01:46:59.120Z,27.13
2023-02-15T01:51:03.286Z,27.17
2023-02-15T01:55:07.305Z,27.03
2023-02-15T01:59:15.031Z,26.30
2023-02-15T02:03:16.532Z,27.20
2023-02-15T02:07:21.390Z,27.13
2023-02-15T02:11:23.283Z,26.47
2023-02-15T02:15:41.705Z,26.93
2023-02-15T02:20:11.103Z,26.90
2023-02-15T02:24:35.377Z,26.57
2023-02-15T02:29:11.124Z,27.40
2023-02-15T02:33:27.591Z,25.17
2023-02-15T02:37:38.246Z,26.53
2023-02-15T02:41:51.432Z,26.80
2023-02-15T02:46:26.497Z,27.13
2023-02-15T02:50:30.516Z,25.90
2023-02-15T02:54:34.675Z,26.03
2023-02-15T02:59:02.441Z,25.27
2023-02-15T03:03:09.454Z,26.43
2023-02-15T03:07:15.562Z,26.60
2023-02-15T03:11:17.029Z,25.03
2023-02-15T03:15:26.195Z,26.47
2023-02-15T03:19:31.863Z,25.87
2023-02-15T03:23:34.785Z,26.20
2023-02-15T03:27:40.291Z,24.87
2023-02-15T03:31:46.707Z,27.07
2023-02-15T03:35:54.872Z,26.23
2023-02-15T03:40:21.531Z,25.77
2023-02-15T03:44:28.476Z,26.57
2023-02-15T03:48:40.049Z,26.00
2023-02-15T03:52:41.522Z,26.03
2023-02-15T03:57:03.430Z,26.73
2023-02-15T04:01:30.863Z,26.13
2023-02-15T04:05:32.194Z,25.97
2023-02-15T04:09:52.136Z,26.33
2023-02-15T04:13:57.552Z,24.83
2023-02-15T04:17:59.004Z,24.30
2023-02-15T04:22:19.093Z,25.03
2023-02-15T04:26:20.436Z,25.67
2023-02-15T04:30:25.442Z,25.27
2023-02-15T04:34:27.225Z,25.73
2023-02-15T04:38:28.539Z,26.77
2023-02-15T04:42:29.845Z,25.43
2023-02-15T04:46:31.656Z,24.93
2023-02-15T04:50:33.092Z,23.67
2023-02-15T04:54:34.500Z,25.50
2023-02-15T04:58:36.509Z,25.33
2023-02-15T05:02:38.762Z,24.73
2023-02-15T05:06:40.071Z,25.93
2023-02-15T05:10:41.459Z,25.93
2023-02-15T05:14:42.815Z,24.07
2023-02-15T05:18:44.249Z,24.90
2023-02-15T05:22:45.693Z,24.20
2023-02-15T05:27:05.411Z,22.83
2023-02-15T05:31:12.981Z,23.77
2023-02-15T05:35:16.303Z,23.50
2023-02-15T05:39:17.843Z,23.80
2023-02-15T05:43:19.482Z,22.53
2023-02-15T05:47:21.112Z,23.43
2023-02-15T05:51:22.509Z,24.40
2023-02-15T05:55:23.845Z,22.90
2023-02-15T05:59:25.177Z,22.63
2023-02-15T06:03:29.233Z,24.00
2023-02-15T06:07:30.877Z,23.13
2023-02-15T06:11:32.259Z,22.73
2023-02-15T06:15:33.741Z,23.23
2023-02-15T06:19:35.054Z,21.70
2023-02-15T06:23:36.425Z,23.83
2023-02-15T06:27:38.682Z,22.73
2023-02-15T06:31:40.120Z,22.83
2023-02-15T06:35:42.037Z,24.03
2023-02-15T06:39:43.928Z,21.40
2023-02-15T06:43:45.220Z,22.33
2023-02-15T06:47:46.606Z,21.70
2023-02-15T06:51:48.023Z,21.50
2023-02-15T06:55:49.399Z,21.50
2023-02-15T06:59:50.898Z,21.47
2023-02-15T07:03:52.265Z,21.10
2023-02-15T07:07:53.572Z,20.83
2023-02-15T07:12:13.406Z,20.33
2023-02-15T07:16:15.183Z,20.97
2023-02-15T07:20:22.552Z,20.27
2023-02-15T07:24:24.138Z,19.93
2023-02-15T07:28:25.638Z,20.40
2023-02-15T07:32:31.678Z,20.03
2023-02-15T07:36:33.168Z,19.53
2023-02-15T07:40:34.536Z,19.77
2023-02-15T07:44:35.910Z,19.67
2023-02-15T07:48:37.564Z,18.77
2023-02-15T07:52:38.826Z,19.33
2023-02-15T07:56:40.512Z,18.40
2023-02-15T08:01:02.570Z,18.70
2023-02-15T08:05:04.194Z,17.57
2023-02-15T08:09:09.514Z,18.50
2023-02-15T08:13:10.842Z,18.27
2023-02-15T08:17:12.254Z,17.13
2023-02-15T08:21:13.654Z,17.47
2023-02-15T08:25:15.000Z,21.50
2023-02-15T08:29:18.956Z,18.37
2023-02-15T08:33:20.276Z,17.27
2023-02-15T08:37:21.683Z,16.10
2023-02-15T08:41:25.531Z,15.43
2023-02-15T08:45:26.933Z,15.37
2023-02-15T08:49:28.384Z,16.33
2023-02-15T08:53:29.648Z,15.40
2023-02-15T08:57:31.010Z,14.97
2023-02-15T09:01:34.751Z,15.30
2023-02-15T09:05:36.091Z,15.13
2023-02-15T09:09:37.591Z,13.27
2023-02-15T09:13:40.327Z,13.43
2023-02-15T09:17:44.145Z,14.50
2023-02-15T09:21:47.537Z,14.03
2023-02-15T09:25:49.026Z,12.97
2023-02-15T09:29:50.373Z,12.93
2023-02-15T09:33:51.854Z,12.10
2023-02-15T09:37:53.169Z,12.63
2023-02-15T09:42:00.505Z,13.10
2023-02-15T09:46:21.822Z,12.53
2023-02-15T09:50:42.395Z,13.10
2023-02-15T09:55:07.995Z,13.00
2023-02-15T09:59:35.490Z,12.70
2023-02-15T10:03:52.990Z,12.77
2023-02-15T10:08:34.999Z,12.33
2023-02-15T10:12:37.025Z,12.73
2023-02-15T10:16:50.541Z,12.60
2023-02-15T10:20:57.723Z,12.77
2023-02-15T10:25:14.449Z,12.40
2023-02-15T10:29:21.906Z,11.43
2023-02-15T10:33:32.037Z,11.37
2023-02-15T10:37:47.566Z,11.93
2023-02-15T10:42:10.124Z,11.07
2023-02-15T10:46:33.612Z,11.83
2023-02-15T10:50:49.254Z,11.80
2023-02-15T10:55:07.517Z,12.00
2023-02-15T10:59:29.112Z,12.17
2023-02-15T11:03:41.377Z,12.23
2023-02-15T11:07:46.860Z,12.13
2023-02-15T11:11:51.363Z,12.10
2023-02-15T11:15:57.972Z,12.57
2023-02-15T11:20:08.753Z,11.10
2023-02-15T11:24:15.863Z,11.20
2023-02-15T11:28:32.869Z,11.37
2023-02-15T11:32:38.166Z,11.13
2023-02-15T11:36:42.591Z,11.80
2023-02-15T11:41:15.952Z,12.23
2023-02-15T11:45:35.497Z,11.83
2023-02-15T11:49:38.164Z,11.17
2023-02-15T11:53:40.547Z,10.97
2023-02-15T11:57:48.129Z,11.53
2023-02-15T12:01:49.520Z,11.73
2023-02-15T12:05:57.367Z,12.17
2023-02-15T12:10:07.881Z,11.30
2023-02-15T12:14:12.653Z,12.23
2023-02-15T12:18:48.045Z,12.43
2023-02-15T12:23:03.244Z,12.13
2023-02-15T12:27:17.354Z,12.87
2023-02-15T12:31:23.591Z,13.37
2023-02-15T12:35:31.787Z,12.73
2023-02-15T12:39:33.821Z,12.10
2023-02-15T12:43:38.586Z,13.47
2023-02-15T12:47:40.336Z,11.73
2023-02-15T12:51:47.230Z,12.23
2023-02-15T12:55:57.385Z,12.33
2023-02-15T13:00:26.776Z,12.80
2023-02-15T13:04:30.052Z,12.27
2023-02-15T13:08:35.575Z,11.93
2023-02-15T13:12:36.966Z,12.20
2023-02-15T13:16:40.656Z,12.47
2023-02-15T13:20:43.407Z,12.37
2023-02-15T13:24:51.257Z,12.77
2023-02-15T13:29:09.657Z,12.67
2023-02-15T13:33:27.306Z,11.60
2023-02-15T13:37:58.427Z,13.03
2023-02-15T13:42:21.981Z,13.33
2023-02-15T13:46:53.366Z,12.07
2023-02-15T13:51:02.493Z,13.87
2023-02-15T13:55:37.436Z,12.87
2023-02-15T14:00:07.826Z,12.50
2023-02-15T14:04:29.896Z,12.67
2023-02-15T14:08:31.660Z,12.87
2023-02-15T14:12:50.359Z,12.97
2023-02-15T14:17:07.012Z,12.73
2023-02-15T14:21:20.209Z,12.03
2023-02-15T14:25:31.237Z,12.90
2023-02-15T14:29:41.931Z,12.60
2023-02-15T14:33:57.843Z,13.17
2023-02-15T14:38:03.558Z,13.27
2023-02-15T14:42:38.569Z,12.97
2023-02-15T14:46:49.211Z,13.90
2023-02-15T14:50:52.116Z,13.80
2023-02-15T14:54:55.329Z,13.77
2023-02-15T14:58:59.332Z,13.47
2023-02-15T15:03:01.069Z,13.73
2023-02-15T15:07:08.487Z,15.50
2023-02-15T15:11:41.082Z,14.07
2023-02-15T15:15:48.011Z,14.97
2023-02-15T15:19:52.245Z,15.03
2023-02-15T15:23:54.042Z,15.37
2023-02-15T15:27:55.987Z,15.47
2023-02-15T15:32:00.961Z,15.07
2023-02-15T15:36:32.538Z,14.27
2023-02-15T15:41:01.431Z,13.90
2023-02-15T15:45:21.466Z,15.27
2023-02-15T15:49:29.016Z,14.47
2023-02-15T15:53:35.486Z,14.13
2023-02-15T15:57:42.295Z,14.83
2023-02-15T16:01:45.235Z,14.50
2023-02-15T16:05:46.632Z,15.10
2023-02-15T16:10:02.381Z,15.27
2023-02-15T16:14:03.788Z,15.97
2023-02-15T16:18:05.657Z,14.53
2023-02-15T16:22:33.698Z,14.90
2023-02-15T16:26:56.909Z,15.80
2023-02-15T16:31:15.821Z,15.03
2023-02-15T16:35:19.793Z,15.87
2023-02-15T16:39:21.400Z,14.60
2023-02-15T16:43:27.318Z,15.73
2023-02-15T16:47:32.378Z,15.73
2023-02-15T16:51:35.943Z,15.73
2023-02-15T16:55:42.769Z,14.40
2023-02-15T16:59:49.086Z,15.00
2023-02-15T17:03:52.982Z,14.20
2023-02-15T17:08:03.399Z,14.33
2023-02-15T17:12:05.574Z,15.03
2023-02-15T17:16:26.907Z,13.40
2023-02-15T17:20:28.888Z,13.77
2023-02-15T17:24:40.164Z,14.93
2023-02-15T17:28:47.673Z,15.30
2023-02-15T17:32:58.177Z,15.13
2023-02-15T17:37:03.306Z,14.90
2023-02-15T17:41:05.210Z,14.13
2023-02-15T17:45:06.926Z,14.20
2023-02-15T17:49:19.332Z,13.37
2023-02-15T17:53:20.638Z,13.43
2023-02-15T17:57:22.001Z,13.73
2023-02-15T18:01:42.138Z,12.73
2023-02-15T18:06:02.313Z,14.40
2023-02-15T18:10:35.938Z,15.20
2023-02-15T18:14:37.231Z,13.70
2023-02-15T18:18:38.549Z,14.13
2023-02-15T18:22:39.843Z,14.83
2023-02-15T18:26:41.222Z,14.43
2023-02-15T18:30:43.195Z,14.20
2023-02-15T18:34:46.545Z,14.87
2023-02-15T18:38:48.026Z,15.87
2023-02-15T18:42:49.450Z,16.83
2023-02-15T18:46:50.821Z,14.97
2023-02-15T18:50:52.190Z,14.00
2023-02-15T18:54:57.812Z,14.43
2023-02-15T18:58:59.241Z,13.90
2023-02-15T19:03:02.342Z,14.53
2023-02-15T19:07:03.676Z,14.97
2023-02-15T19:11:05.425Z,14.60
2023-02-15T19:15:07.324Z,14.57
2023-02-15T19:19:08.637Z,14.90
2023-02-15T19:23:20.696Z,15.50
2023-02-15T19:27:31.701Z,14.10
2023-02-15T19:31:35.105Z,14.70
2023-02-15T19:35:37.047Z,14.80
2023-02-15T19:39:40.190Z,15.30
2023-02-15T19:43:41.568Z,14.80
2023-02-15T19:47:43.382Z,15.77
2023-02-15T19:51:44.954Z,14.53
2023-02-15T19:55:46.599Z,16.10
2023-02-15T19:59:47.934Z,15.10
2023-02-15T20:03:51.173Z,15.33
2023-02-15T20:07:53.605Z,14.70
2023-02-15T20:11:55.381Z,15.40
2023-02-15T20:15:56.824Z,16.13
2023-02-15T20:19:58.335Z,14.83
2023-02-15T20:24:01.060Z,15.87
2023-02-15T20:28:02.484Z,16.00
2023-02-15T20:32:04.276Z,16.17
2023-02-15T20:36:05.854Z,16.20
2023-02-15T20:40:35.339Z,16.27
2023-02-15T20:44:36.743Z,16.40
2023-02-15T20:48:38.104Z,16.10
2023-02-15T20:52:39.537Z,16.13
2023-02-15T20:56:41.083Z,16.50
2023-02-15T21:00:42.526Z,17.93
2023-02-15T21:04:43.870Z,17.20
2023-02-15T21:08:45.231Z,17.10
2023-02-15T21:12:47.446Z,16.37
2023-02-15T21:16:50.544Z,18.43
2023-02-15T21:20:56.549Z,16.33
2023-02-15T21:24:57.883Z,17.83
2023-02-15T21:28:59.279Z,18.60
2023-02-15T21:33:00.666Z,18.13
2023-02-15T21:37:02.089Z,18.27
2023-02-15T21:41:23.535Z,17.73
2023-02-15T21:45:43.473Z,19.47
2023-02-15T21:49:44.802Z,18.97
2023-02-15T21:53:46.996Z,18.10
2023-02-15T21:57:48.432Z,19.53
2023-02-15T22:01:51.283Z,18.20
2023-02-15T22:05:52.702Z,18.27
2023-02-15T22:09:54.327Z,18.40
2023-02-15T22:13:55.696Z,17.60
2023-02-15T22:17:57.388Z,19.97
2023-02-15T22:21:58.748Z,21.47
2023-02-15T22:26:11.500Z,21.77
2023-02-15T22:30:33.153Z,18.47
2023-02-15T22:34:34.438Z,19.60
2023-02-15T22:38:35.742Z,21.57
2023-02-15T22:42:37.113Z,19.23
2023-02-15T22:46:40.444Z,22.63
2023-02-15T22:50:41.848Z,21.40
2023-02-15T22:54:43.367Z,24.10
2023-02-15T22:58:48.228Z,24.77
2023-02-15T23:02:49.846Z,22.10
2023-02-15T23:06:53.189Z,20.17
2023-02-15T23:10:56.623Z,20.77
2023-02-15T23:14:58.332Z,19.17
2023-02-15T23:18:59.857Z,21.40
2023-02-15T23:23:01.154Z,20.73
2023-02-15T23:27:21.029Z,21.97
2023-02-15T23:31:28.578Z,19.53
2023-02-15T23:35:29.976Z,20.37
2023-02-15T23:39:50.182Z,20.27
2023-02-15T23:44:00.321Z,18.80
2023-02-15T23:48:19.956Z,20.40
2023-02-15T23:52:21.490Z,20.17
2023-02-15T23:56:22.811Z,19.57
